Time;durP1;ratioP1;P1;durP2;ratioP2;P2;SDS_P1;SDS_P2;PMS_P1;PMS_P2;Temp;Humidity;BMP_temperature;BMP_pressure;BME280_temperature;BME280_humidity;BME280_pressure;Samples;Min_cycle;Max_cycle;Signal;HPM_P1;HPM_P2
2022/02/16 00:01:00;;;;;;;11.85;9.32;;;8.50;99.90;;;;;;5094112;28;20145;-59
2022/02/16 00:03:25;;;;;;;11.90;9.43;;;8.50;99.90;;;;;;5094225;28;20026;-59
2022/02/16 00:05:51;;;;;;;12.48;9.88;;;8.50;99.90;;;;;;5094072;28;20450;-59
2022/02/16 00:08:17;;;;;;;10.48;8.73;;;8.50;99.90;;;;;;5093084;28;20430;-59
2022/02/16 00:10:42;;;;;;;12.07;9.50;;;8.50;99.90;;;;;;5080607;28;20032;-59
2022/02/16 00:13:08;;;;;;;9.93;8.93;;;8.60;99.90;;;;;;5073565;28;20021;-59
2022/02/16 00:15:34;;;;;;;11.88;9.07;;;8.50;99.90;;;;;;5073633;28;20020;-59
2022/02/16 00:17:59;;;;;;;14.32;10.48;;;8.50;99.90;;;;;;5085021;28;20069;-59
2022/02/16 00:20:25;;;;;;;11.70;9.90;;;8.50;99.90;;;;;;5093660;28;20118;-59
2022/02/16 00:22:50;;;;;;;14.18;10.57;;;8.50;99.90;;;;;;5093730;28;20062;-59
2022/02/16 00:25:16;;;;;;;12.43;11.13;;;8.50;99.90;;;;;;5093680;28;20032;-59
2022/02/16 00:27:41;;;;;;;14.15;11.25;;;8.60;99.90;;;;;;5093622;28;20032;-59
2022/02/16 00:30:08;;;;;;;13.57;10.45;;;8.60;99.90;;;;;;5093550;28;20028;-59
2022/02/16 00:32:33;;;;;;;17.00;11.10;;;8.60;99.90;;;;;;5092340;28;20028;-58
2022/02/16 00:34:59;;;;;;;13.73;11.50;;;8.60;99.90;;;;;;5093398;28;20026;-58
2022/02/16 00:37:24;;;;;;;15.98;12.63;;;8.60;99.90;;;;;;5092102;28;20419;-59
2022/02/16 00:39:50;;;;;;;16.67;10.93;;;8.60;99.90;;;;;;5093150;28;20036;-59
2022/02/16 00:42:16;;;;;;;15.02;11.25;;;8.60;99.90;;;;;;5092420;28;20024;-59
2022/02/16 00:44:41;;;;;;;13.18;11.20;;;8.60;99.90;;;;;;5093345;28;20057;-59
2022/02/16 00:47:07;;;;;;;13.98;10.70;;;8.70;99.90;;;;;;5092025;28;20141;-58
2022/02/16 00:49:33;;;;;;;16.38;10.57;;;8.70;99.90;;;;;;5093165;28;20102;-59
2022/02/16 00:51:58;;;;;;;15.57;10.32;;;8.70;99.90;;;;;;5093628;28;20468;-58
2022/02/16 00:54:24;;;;;;;14.23;10.75;;;8.70;99.90;;;;;;5093286;28;20043;-58
2022/02/16 00:56:49;;;;;;;13.15;10.10;;;8.70;99.90;;;;;;5091822;28;20110;-58
2022/02/16 00:59:15;;;;;;;12.05;10.60;;;8.70;99.90;;;;;;5093135;28;20024;-59
2022/02/16 01:01:40;;;;;;;13.05;9.63;;;8.70;99.90;;;;;;5091809;28;20028;-59
2022/02/16 01:04:06;;;;;;;11.50;9.68;;;8.70;99.90;;;;;;5093071;28;20020;-59
2022/02/16 01:06:31;;;;;;;11.88;9.70;;;8.70;99.90;;;;;;5093004;28;20538;-59
2022/02/16 01:08:57;;;;;;;10.68;8.73;;;8.70;99.90;;;;;;5093469;28;20103;-59
2022/02/16 01:11:22;;;;;;;13.02;9.55;;;8.70;99.90;;;;;;5089663;28;20430;-58
2022/02/16 01:13:48;;;;;;;13.35;9.80;;;8.70;99.90;;;;;;5072959;28;20035;-58
2022/02/16 01:16:15;;;;;;;11.52;9.00;;;8.70;99.90;;;;;;5072671;28;20063;-59
2022/02/16 01:18:40;;;;;;;14.90;9.60;;;8.60;99.90;;;;;;5060765;28;20053;-58
2022/02/16 01:21:06;;;;;;;11.75;9.50;;;8.60;99.90;;;;;;5052761;28;20009;-58
2022/02/16 01:23:31;;;;;;;11.15;8.60;;;8.60;99.90;;;;;;5052664;28;20025;-58
2022/02/16 01:25:57;;;;;;;11.60;9.23;;;8.70;99.90;;;;;;5052509;28;20477;-59
2022/02/16 01:28:22;;;;;;;11.65;9.20;;;8.70;99.90;;;;;;5052666;28;20473;-59
2022/02/16 01:30:48;;;;;;;14.32;9.70;;;8.70;99.90;;;;;;5051355;28;20025;-58
2022/02/16 01:33:13;;;;;;;11.30;9.13;;;8.70;99.90;;;;;;5052506;28;20477;-58
2022/02/16 01:35:39;;;;;;;12.32;9.45;;;8.70;99.90;;;;;;5052394;28;20017;-58
2022/02/16 01:38:05;;;;;;;12.70;9.68;;;8.70;99.90;;;;;;5052535;28;20029;-58
2022/02/16 01:40:31;;;;;;;13.77;9.32;;;8.70;99.90;;;;;;5052355;28;20040;-58
2022/02/16 01:42:56;;;;;;;12.55;9.77;;;8.70;99.90;;;;;;5052490;28;20025;-58
2022/02/16 01:45:26;;;;;;;14.70;9.90;;;8.80;99.90;;;;;;5052342;28;20036;-59
2022/02/16 01:47:53;;;;;;;13.40;10.45;;;8.80;99.90;;;;;;5052354;28;20041;-58
2022/02/16 01:50:19;;;;;;;14.07;10.15;;;8.80;99.90;;;;;;5052351;28;20421;-58
2022/02/16 01:52:44;;;;;;;15.57;10.55;;;8.80;99.90;;;;;;5050945;28;20496;-58
2022/02/16 01:55:11;;;;;;;16.70;10.10;;;8.80;99.90;;;;;;5051165;28;20029;-58
2022/02/16 01:57:38;;;;;;;13.40;9.75;;;8.80;99.90;;;;;;5052326;28;20017;-58
2022/02/16 02:00:05;;;;;;;13.13;9.68;;;8.80;99.90;;;;;;5052224;28;20033;-58
2022/02/16 02:02:30;;;;;;;11.55;9.43;;;8.90;99.90;;;;;;5052198;28;20032;-58
2022/02/16 02:04:56;;;;;;;12.65;8.95;;;8.90;99.90;;;;;;5052276;28;20025;-58
2022/02/16 02:07:22;;;;;;;14.43;8.40;;;8.90;99.90;;;;;;5052048;28;20074;-58
2022/02/16 02:09:48;;;;;;;11.32;8.25;;;8.90;99.90;;;;;;5057453;28;20361;-58
2022/02/16 02:12:14;;;;;;;9.43;7.72;;;8.90;99.90;;;;;;5072165;28;20025;-58
2022/02/16 02:14:40;;;;;;;9.68;7.82;;;8.90;99.90;;;;;;5072184;28;20418;-58
2022/02/16 02:17:05;;;;;;;10.52;7.28;;;8.90;99.90;;;;;;5076038;28;20536;-58
2022/02/16 02:19:31;;;;;;;10.90;7.70;;;8.90;99.90;;;;;;5107865;28;20056;-59
2022/02/16 02:21:56;;;;;;;13.23;8.00;;;8.90;99.90;;;;;;5092262;28;20108;-58
2022/02/16 02:24:22;;;;;;;11.68;8.32;;;8.90;99.90;;;;;;5090146;28;20043;-59
2022/02/16 02:26:47;;;;;;;10.82;7.70;;;8.90;99.90;;;;;;5050854;28;20024;-59
2022/02/16 02:29:15;;;;;;;10.73;8.15;;;8.90;99.90;;;;;;5052032;28;20041;-58
2022/02/16 02:31:40;;;;;;;9.98;8.07;;;8.90;99.90;;;;;;5073682;28;20027;-58
2022/02/16 02:34:06;;;;;;;10.57;8.18;;;8.90;99.90;;;;;;5075473;28;20024;-58
2022/02/16 02:36:32;;;;;;;8.63;7.63;;;8.90;99.90;;;;;;5075378;28;20024;-58
2022/02/16 02:38:57;;;;;;;11.82;7.47;;;9.00;99.90;;;;;;5075528;28;20068;-58
2022/02/16 02:41:24;;;;;;;11.55;7.88;;;9.00;99.90;;;;;;5075693;28;20032;-58
2022/02/16 02:43:50;;;;;;;10.52;7.75;;;9.00;99.90;;;;;;5075390;28;20111;-58
2022/02/16 02:46:17;;;;;;;10.02;7.10;;;9.00;99.90;;;;;;5075343;28;20032;-58
2022/02/16 02:48:43;;;;;;;7.65;6.60;;;9.00;99.90;;;;;;5075363;28;20090;-58
2022/02/16 02:51:09;;;;;;;12.80;8.05;;;9.00;99.90;;;;;;5075316;28;20099;-58
2022/02/16 02:53:35;;;;;;;10.52;6.55;;;9.00;99.90;;;;;;5074972;28;20029;-58
2022/02/16 02:56:02;;;;;;;8.45;7.15;;;9.00;99.90;;;;;;5075133;28;20020;-58
2022/02/16 02:58:27;;;;;;;8.10;6.25;;;9.00;99.90;;;;;;5075216;28;20115;-58
2022/02/16 03:00:53;;;;;;;8.05;6.80;;;9.00;99.90;;;;;;5075095;28;20131;-58
2022/02/16 03:03:18;;;;;;;9.60;6.82;;;9.00;99.90;;;;;;5074996;28;20039;-58
2022/02/16 03:05:44;;;;;;;8.25;6.70;;;9.00;99.90;;;;;;5075118;28;20032;-58
2022/02/16 03:08:10;;;;;;;10.00;6.93;;;9.00;99.90;;;;;;5074733;28;20094;-58
2022/02/16 03:10:35;;;;;;;7.85;6.30;;;9.00;99.90;;;;;;5090510;28;20108;-58
2022/02/16 03:13:01;;;;;;;7.88;6.00;;;9.00;99.90;;;;;;5074827;28;20030;-58
2022/02/16 03:15:26;;;;;;;9.38;6.45;;;9.10;99.90;;;;;;5074790;28;20040;-58
2022/02/16 03:17:52;;;;;;;7.32;5.75;;;9.10;99.90;;;;;;5075023;28;20036;-58
2022/02/16 03:20:17;;;;;;;7.38;5.38;;;9.10;99.90;;;;;;5074566;28;20052;-58
2022/02/16 03:22:43;;;;;;;6.80;5.20;;;9.10;99.90;;;;;;5074479;28;20393;-58
2022/02/16 03:25:10;;;;;;;7.97;5.35;;;9.10;99.90;;;;;;5074550;28;20361;-58
2022/02/16 03:27:37;;;;;;;9.93;5.45;;;9.10;99.90;;;;;;5074659;28;20488;-58
2022/02/16 03:30:06;;;;;;;6.18;5.07;;;9.10;99.90;;;;;;5074495;28;20040;-58
2022/02/16 03:32:31;;;;;;;7.80;5.13;;;9.20;99.90;;;;;;5074409;28;20029;-58
2022/02/16 03:34:57;;;;;;;7.50;4.95;;;9.10;99.90;;;;;;5073197;28;20035;-58
2022/02/16 03:37:22;;;;;;;6.32;4.85;;;9.10;99.90;;;;;;5073133;28;20400;-59
2022/02/16 03:39:48;;;;;;;6.18;4.38;;;9.10;99.90;;;;;;5074377;28;20506;-58
2022/02/16 03:42:14;;;;;;;8.02;4.65;;;9.00;99.90;;;;;;5074116;28;20079;-58
2022/02/16 03:44:40;;;;;;;6.47;4.78;;;9.00;99.90;;;;;;5074259;28;20035;-58
2022/02/16 03:47:06;;;;;;;7.30;4.47;;;9.00;99.90;;;;;;5073020;28;20120;-58
2022/02/16 03:49:31;;;;;;;5.35;3.88;;;9.00;99.90;;;;;;5074101;28;20115;-58
2022/02/16 03:51:57;;;;;;;4.00;3.58;;;9.00;99.90;;;;;;5072934;28;20020;-58
2022/02/16 03:54:23;;;;;;;4.95;4.45;;;9.00;99.90;;;;;;5073890;28;20016;-58
2022/02/16 03:56:48;;;;;;;4.70;3.72;;;8.90;99.90;;;;;;5072778;28;20362;-58
2022/02/16 03:59:14;;;;;;;5.68;4.18;;;9.00;99.90;;;;;;5073998;28;20099;-58
2022/02/16 04:01:39;;;;;;;5.72;3.95;;;9.00;99.90;;;;;;5074040;28;20036;-58
2022/02/16 04:04:05;;;;;;;5.72;4.50;;;9.00;99.90;;;;;;5073869;28;20028;-58
2022/02/16 04:06:30;;;;;;;5.60;4.63;;;8.90;99.90;;;;;;5073724;28;20033;-58
2022/02/16 04:08:56;;;;;;;5.65;4.25;;;8.90;99.90;;;;;;5073660;28;20029;-58
2022/02/16 04:11:26;;;;;;;4.93;4.30;;;8.80;99.90;;;;;;5073659;28;20228;-58
2022/02/16 04:13:53;;;;;;;5.85;3.88;;;8.80;99.90;;;;;;5073955;28;20021;-58
2022/02/16 04:16:19;;;;;;;6.13;4.68;;;8.80;99.90;;;;;;5073842;28;20078;-58
2022/02/16 04:18:45;;;;;;;4.80;4.30;;;8.80;99.90;;;;;;5073464;28;20055;-58
2022/02/16 04:21:10;;;;;;;5.55;4.57;;;8.80;99.90;;;;;;5073531;28;20025;-58
2022/02/16 04:23:36;;;;;;;5.60;4.20;;;8.90;99.90;;;;;;5073460;28;20048;-58
2022/02/16 04:26:01;;;;;;;5.93;4.47;;;8.80;99.90;;;;;;5073620;28;20496;-58
2022/02/16 04:28:27;;;;;;;6.15;5.03;;;8.90;99.90;;;;;;5073451;28;20020;-58
2022/02/16 04:30:53;;;;;;;7.25;5.32;;;8.90;99.90;;;;;;5073438;28;20074;-58
2022/02/16 04:33:18;;;;;;;7.72;5.65;;;8.90;99.90;;;;;;5073265;28;20055;-58
2022/02/16 04:35:44;;;;;;;8.70;6.22;;;8.90;99.90;;;;;;5073027;28;20063;-58
2022/02/16 04:38:09;;;;;;;8.20;5.38;;;8.90;99.90;;;;;;5073290;28;20096;-58
2022/02/16 04:40:36;;;;;;;8.00;5.25;;;8.90;99.90;;;;;;5073135;28;20030;-58
2022/02/16 04:43:04;;;;;;;7.82;5.50;;;8.90;99.90;;;;;;5072004;28;20032;-58
2022/02/16 04:45:30;;;;;;;8.27;6.07;;;8.90;99.90;;;;;;5072995;28;20107;-58
2022/02/16 04:47:56;;;;;;;7.45;6.20;;;8.90;99.90;;;;;;5073093;28;20076;-58
2022/02/16 04:50:22;;;;;;;7.88;5.68;;;8.90;99.90;;;;;;5072991;28;20063;-58
2022/02/16 04:52:49;;;;;;;8.80;5.95;;;8.90;99.90;;;;;;5072832;28;20560;-58
2022/02/16 04:55:15;;;;;;;10.07;6.43;;;8.90;99.90;;;;;;5072544;28;20021;-58
2022/02/16 04:57:41;;;;;;;7.22;5.43;;;9.00;99.90;;;;;;5073047;28;20021;-58
2022/02/16 05:00:08;;;;;;;8.02;5.70;;;9.00;99.90;;;;;;5073271;28;20035;-58
2022/02/16 05:02:34;;;;;;;7.07;5.20;;;8.90;99.90;;;;;;5072782;28;20033;-59
2022/02/16 05:04:59;;;;;;;6.80;4.78;;;9.00;99.90;;;;;;5088400;28;20029;-58
2022/02/16 05:07:25;;;;;;;7.15;6.00;;;9.00;99.90;;;;;;5072914;28;20035;-58
2022/02/16 05:09:51;;;;;;;6.40;5.60;;;9.00;99.90;;;;;;5072588;28;20020;-58
2022/02/16 05:12:16;;;;;;;6.90;5.35;;;9.00;99.90;;;;;;5072717;28;20484;-58
2022/02/16 05:14:42;;;;;;;6.50;4.55;;;9.00;99.90;;;;;;5072731;28;20033;-59
2022/02/16 05:17:08;;;;;;;6.68;5.00;;;9.00;99.90;;;;;;5072716;28;20477;-58
2022/02/16 05:19:34;;;;;;;7.60;5.03;;;9.00;99.90;;;;;;5071523;28;20492;-58
2022/02/16 05:22:00;;;;;;;6.35;4.75;;;9.10;99.90;;;;;;5072715;28;20043;-58
2022/02/16 05:24:26;;;;;;;4.97;4.47;;;9.00;99.90;;;;;;5072605;28;20508;-58
2022/02/16 05:26:51;;;;;;;4.85;4.35;;;9.00;99.90;;;;;;5072881;28;20060;-58
2022/02/16 05:29:17;;;;;;;5.30;4.50;;;9.00;99.90;;;;;;5072573;28;20036;-58
2022/02/16 05:31:43;;;;;;;4.68;4.18;;;9.00;99.90;;;;;;5088150;28;20027;-58
2022/02/16 05:34:09;;;;;;;4.28;3.85;;;9.00;99.90;;;;;;5072267;28;20036;-59
2022/02/16 05:36:34;;;;;;;4.47;4.07;;;9.00;99.90;;;;;;5071177;28;20417;-58
2022/02/16 05:39:00;;;;;;;5.70;4.28;;;9.00;99.90;;;;;;5071591;28;20078;-58
2022/02/16 05:41:28;;;;;;;6.63;4.25;;;8.90;99.90;;;;;;5071128;28;20029;-58
2022/02/16 05:43:53;;;;;;;6.60;4.65;;;8.90;99.90;;;;;;5071997;28;20070;-59
2022/02/16 05:46:19;;;;;;;4.90;4.40;;;8.90;99.90;;;;;;5070765;28;20025;-58
2022/02/16 05:48:44;;;;;;;4.78;4.38;;;8.90;99.90;;;;;;5072471;28;20020;-58
2022/02/16 05:51:10;;;;;;;5.57;4.78;;;8.90;99.90;;;;;;5072476;28;20113;-58
2022/02/16 05:53:35;;;;;;;4.78;4.32;;;8.90;99.90;;;;;;5072521;28;20110;-59
2022/02/16 05:56:01;;;;;;;6.07;4.88;;;8.90;99.90;;;;;;5072161;28;20025;-58
2022/02/16 05:58:26;;;;;;;5.40;4.78;;;8.90;99.90;;;;;;5072446;28;20070;-58
2022/02/16 06:00:52;;;;;;;5.10;4.55;;;8.90;99.90;;;;;;5071086;28;20028;-58
2022/02/16 06:03:17;;;;;;;4.55;4.15;;;8.90;99.90;;;;;;5072287;28;20564;-58
2022/02/16 06:05:43;;;;;;;4.35;3.90;;;8.90;99.90;;;;;;5073798;28;20036;-58
2022/02/16 06:08:08;;;;;;;6.65;4.70;;;8.90;99.90;;;;;;5076123;28;20052;-58
2022/02/16 06:10:34;;;;;;;6.63;4.80;;;9.00;99.90;;;;;;5075967;28;20071;-58
2022/02/16 06:13:00;;;;;;;4.88;4.38;;;9.00;99.90;;;;;;5075861;28;20020;-59
2022/02/16 06:15:27;;;;;;;4.88;4.38;;;9.00;99.90;;;;;;5076372;28;20017;-59
2022/02/16 06:17:53;;;;;;;4.82;4.32;;;9.00;99.90;;;;;;5075925;28;20036;-58
2022/02/16 06:20:19;;;;;;;4.97;4.53;;;9.00;99.90;;;;;;5075768;28;20364;-58
2022/02/16 06:22:44;;;;;;;4.97;4.50;;;9.00;99.90;;;;;;5075991;28;20112;-58
2022/02/16 06:25:10;;;;;;;5.53;4.10;;;9.10;99.90;;;;;;5075565;28;20055;-58
2022/02/16 06:27:36;;;;;;;5.13;4.25;;;9.10;99.90;;;;;;5075739;28;20024;-58
2022/02/16 06:30:07;;;;;;;5.45;4.20;;;9.10;99.90;;;;;;5075594;28;20021;-58
2022/02/16 06:32:33;;;;;;;6.75;4.10;;;9.10;99.90;;;;;;5074681;28;20390;-58
2022/02/16 06:34:58;;;;;;;4.60;4.20;;;9.10;99.90;;;;;;5075000;28;20028;-58
2022/02/16 06:37:24;;;;;;;5.63;4.38;;;9.10;99.90;;;;;;5074194;28;20036;-58
2022/02/16 06:39:49;;;;;;;5.30;4.57;;;9.10;99.90;;;;;;5073855;28;20061;-58
2022/02/16 06:42:15;;;;;;;4.07;3.67;;;9.10;99.90;;;;;;5072314;28;20051;-58
2022/02/16 06:44:41;;;;;;;7.13;4.15;;;9.10;99.90;;;;;;5071718;28;20035;-59
2022/02/16 06:47:07;;;;;;;4.00;3.60;;;9.20;99.90;;;;;;5071028;28;20033;-58
2022/02/16 06:49:32;;;;;;;5.50;3.90;;;9.20;99.90;;;;;;5066773;28;20033;-59
2022/02/16 06:51:58;;;;;;;4.45;3.92;;;9.20;99.90;;;;;;5071305;28;20021;-59
2022/02/16 06:54:23;;;;;;;4.60;3.80;;;9.20;99.90;;;;;;5070706;28;20020;-58
2022/02/16 06:56:49;;;;;;;5.03;3.85;;;9.20;99.90;;;;;;5068699;28;20430;-59
2022/02/16 06:59:14;;;;;;;3.72;3.42;;;9.30;99.90;;;;;;5070873;28;20417;-59
2022/02/16 07:01:40;;;;;;;3.70;3.38;;;9.30;99.90;;;;;;5070911;28;20201;-58
2022/02/16 07:04:32;;;;;;;4.57;3.58;;;9.30;99.90;;;;;;5071013;28;20032;-58
2022/02/16 07:06:57;;;;;;;3.72;2.83;;;9.30;99.90;;;;;;5069437;28;20396;-58
2022/02/16 07:09:23;;;;;;;5.10;3.35;;;9.30;99.90;;;;;;5070301;28;20028;-58
2022/02/16 07:11:51;;;;;;;4.97;3.67;;;9.30;99.90;;;;;;5070592;28;20044;-59
2022/02/16 07:14:18;;;;;;;3.70;3.30;;;9.30;99.90;;;;;;5070719;28;20421;-58
2022/02/16 07:16:44;;;;;;;4.47;3.33;;;9.40;99.90;;;;;;5066764;28;20016;-58
2022/02/16 07:19:10;;;;;;;3.05;2.72;;;9.40;99.90;;;;;;5068491;28;20048;-58
2022/02/16 07:21:35;;;;;;;4.13;2.78;;;9.40;99.90;;;;;;5067429;28;20028;-59
2022/02/16 07:24:01;;;;;;;3.70;3.00;;;9.40;99.90;;;;;;5070690;28;20044;-59
2022/02/16 07:26:26;;;;;;;3.08;2.70;;;9.50;99.90;;;;;;5069891;28;20033;-59
2022/02/16 07:28:52;;;;;;;2.83;2.50;;;9.50;99.90;;;;;;5070420;28;20079;-59
2022/02/16 07:31:17;;;;;;;2.63;2.20;;;9.50;99.90;;;;;;5070273;28;20407;-59
2022/02/16 07:33:43;;;;;;;3.05;2.63;;;9.50;99.90;;;;;;5070029;28;20095;-59
2022/02/16 07:36:09;;;;;;;2.88;2.55;;;9.60;99.90;;;;;;5071451;28;20074;-59
2022/02/16 07:38:34;;;;;;;3.10;2.60;;;9.50;99.90;;;;;;5069619;28;20468;-58
2022/02/16 07:41:00;;;;;;;2.85;2.25;;;9.60;99.90;;;;;;5067746;28;20418;-59
2022/02/16 07:43:26;;;;;;;3.65;2.55;;;9.60;99.90;;;;;;5069024;28;20024;-59
2022/02/16 07:45:52;;;;;;;2.70;2.33;;;9.60;99.90;;;;;;5068990;28;20031;-59
2022/02/16 07:48:18;;;;;;;2.90;2.53;;;9.60;99.90;;;;;;5064824;28;20028;-59
2022/02/16 07:50:43;;;;;;;3.08;2.78;;;9.70;99.90;;;;;;5067949;28;20036;-59
2022/02/16 07:53:11;;;;;;;3.35;2.83;;;9.70;99.90;;;;;;5062683;28;20101;-59
2022/02/16 07:55:37;;;;;;;3.47;2.90;;;9.70;99.90;;;;;;5056018;28;20049;-59
2022/02/16 07:58:04;;;;;;;3.72;3.20;;;9.70;99.90;;;;;;5056021;28;20111;-59
2022/02/16 08:00:30;;;;;;;3.25;2.38;;;9.80;99.90;;;;;;5051789;28;20017;-59
2022/02/16 08:02:56;;;;;;;3.45;3.13;;;9.80;99.90;;;;;;5056168;28;20429;-59
2022/02/16 08:05:21;;;;;;;3.97;3.58;;;9.90;99.90;;;;;;5069739;28;20173;-59
2022/02/16 08:07:47;;;;;;;3.65;3.10;;;9.90;99.90;;;;;;5068885;28;20028;-59
2022/02/16 08:10:12;;;;;;;4.13;3.40;;;9.90;99.90;;;;;;5076971;28;20055;-59
2022/02/16 08:12:52;;;;;;;4.70;3.85;;;9.90;99.90;;;;;;5074760;28;20029;-59
2022/02/16 08:15:17;;;;;;;6.63;4.47;;;10.00;99.90;;;;;;5075016;28;20043;-59
2022/02/16 08:17:43;;;;;;;5.60;3.92;;;10.00;99.90;;;;;;5072042;28;20476;-59
2022/02/16 08:20:10;;;;;;;3.97;3.58;;;10.00;99.90;;;;;;5088892;28;20132;-59
2022/02/16 08:22:36;;;;;;;5.35;4.43;;;10.10;99.90;;;;;;5071770;28;20031;-58
2022/02/16 08:25:03;;;;;;;5.53;3.78;;;10.10;99.90;;;;;;5052762;28;20385;-58
2022/02/16 08:27:28;;;;;;;4.72;4.15;;;10.20;99.90;;;;;;5072593;28;20499;-59
2022/02/16 08:29:54;;;;;;;5.30;4.57;;;10.20;99.90;;;;;;5087902;28;20029;-59
2022/02/16 08:32:19;;;;;;;5.55;4.70;;;10.20;99.90;;;;;;5088321;28;20017;-59
2022/02/16 08:34:45;;;;;;;5.25;4.70;;;10.20;99.90;;;;;;5072368;28;20480;-59
2022/02/16 08:37:11;;;;;;;5.65;4.93;;;10.20;99.90;;;;;;5071196;28;20024;-59
2022/02/16 08:39:36;;;;;;;5.88;4.85;;;10.30;99.90;;;;;;5071080;28;20031;-59
2022/02/16 08:42:02;;;;;;;5.32;4.72;;;10.30;99.90;;;;;;5072429;28;20036;-59
2022/02/16 08:44:30;;;;;;;5.80;5.20;;;10.30;99.90;;;;;;5071910;28;20033;-59
2022/02/16 08:47:09;;;;;;;6.03;5.38;;;10.30;99.90;;;;;;5069682;28;20017;-60
2022/02/16 08:49:37;;;;;;;4.97;4.47;;;10.40;99.90;;;;;;5070112;28;20507;-59
2022/02/16 08:52:03;;;;;;;6.32;5.05;;;10.40;99.90;;;;;;5070893;28;20048;-59
2022/02/16 08:54:28;;;;;;;7.50;4.88;;;10.40;99.90;;;;;;5071430;28;20036;-60
2022/02/16 08:56:55;;;;;;;5.68;5.07;;;10.40;99.90;;;;;;5071231;28;20504;-59
2022/02/16 08:59:21;;;;;;;5.90;5.20;;;10.50;99.90;;;;;;5071349;28;20053;-59
2022/02/16 09:01:46;;;;;;;5.97;5.32;;;10.50;99.90;;;;;;5071118;28;20420;-59
2022/02/16 09:04:12;;;;;;;6.10;4.50;;;10.50;99.90;;;;;;5071138;28;20467;-60
2022/02/16 09:06:37;;;;;;;5.03;4.30;;;10.50;99.90;;;;;;5070888;28;20107;-59
2022/02/16 09:09:04;;;;;;;4.95;4.45;;;10.50;99.90;;;;;;5067083;28;20032;-59
2022/02/16 09:11:30;;;;;;;6.13;4.75;;;10.60;99.90;;;;;;5071263;28;20025;-59
2022/02/16 09:13:56;;;;;;;5.07;4.30;;;10.60;99.90;;;;;;5070983;28;20021;-59
2022/02/16 09:16:22;;;;;;;6.03;4.53;;;10.60;99.90;;;;;;5071105;28;20028;-59
2022/02/16 09:18:48;;;;;;;5.32;4.50;;;10.60;99.90;;;;;;5069515;28;20013;-59
2022/02/16 09:21:13;;;;;;;5.50;4.70;;;10.70;99.90;;;;;;5071018;28;20078;-59
2022/02/16 09:23:40;;;;;;;5.75;4.63;;;10.70;99.90;;;;;;5071338;28;20032;-60
2022/02/16 09:26:07;;;;;;;5.88;4.70;;;10.80;99.90;;;;;;5071170;28;20391;-59
2022/02/16 09:28:33;;;;;;;4.85;4.35;;;10.80;99.90;;;;;;5072569;28;20426;-59
2022/02/16 09:31:00;;;;;;;5.75;4.68;;;10.80;99.90;;;;;;5072029;28;20115;-59
2022/02/16 09:33:27;;;;;;;6.10;5.40;;;10.80;99.90;;;;;;5072943;28;20032;-60
2022/02/16 09:35:53;;;;;;;6.13;5.40;;;10.80;99.90;;;;;;5072564;28;20025;-60
2022/02/16 09:38:19;;;;;;;7.32;5.22;;;10.80;99.90;;;;;;5071548;28;20023;-60
2022/02/16 09:40:47;;;;;;;6.60;5.90;;;10.90;99.90;;;;;;5073993;28;20020;-60
2022/02/16 09:43:17;;;;;;;6.18;5.53;;;10.90;99.90;;;;;;5076919;28;20082;-60
2022/02/16 09:45:44;;;;;;;6.60;5.88;;;10.90;99.90;;;;;;5076378;28;20031;-60
2022/02/16 09:48:10;;;;;;;6.82;5.40;;;11.00;99.90;;;;;;5076399;28;20029;-60
2022/02/16 09:50:36;;;;;;;7.45;6.00;;;11.00;99.90;;;;;;5075661;28;20039;-60
2022/02/16 09:53:02;;;;;;;7.65;6.55;;;11.00;99.90;;;;;;5076110;28;20028;-60
2022/02/16 09:55:27;;;;;;;7.85;6.32;;;11.10;99.90;;;;;;5071489;28;20312;-60
2022/02/16 09:57:53;;;;;;;9.10;6.78;;;11.10;99.90;;;;;;5072090;28;20073;-59
2022/02/16 10:00:19;;;;;;;7.40;6.70;;;11.20;99.90;;;;;;5072046;28;20095;-60
2022/02/16 10:02:45;;;;;;;8.23;6.28;;;11.20;99.90;;;;;;5071216;28;20039;-59
2022/02/16 10:05:14;;;;;;;7.72;6.68;;;11.20;99.90;;;;;;5071568;28;20484;-60
2022/02/16 10:07:50;;;;;;;7.43;6.38;;;11.30;99.90;;;;;;5071099;28;20111;-60
2022/02/16 10:10:22;;;;;;;8.75;6.30;;;11.30;99.90;;;;;;5071770;28;20100;-60
2022/02/16 10:12:50;;;;;;;11.13;6.97;;;11.40;99.90;;;;;;5071711;28;20055;-60
2022/02/16 10:15:20;;;;;;;9.40;6.75;;;11.40;99.90;;;;;;5071638;28;20479;-59
2022/02/16 10:17:46;;;;;;;9.90;7.78;;;11.40;99.90;;;;;;5069271;28;20028;-60
2022/02/16 10:20:16;;;;;;;10.25;7.07;;;11.40;99.90;;;;;;5071463;28;20113;-59
2022/02/16 10:22:48;;;;;;;8.00;7.05;;;11.50;99.90;;;;;;5071681;28;20537;-59
2022/02/16 10:25:15;;;;;;;10.30;7.28;;;11.60;99.90;;;;;;5071815;28;20078;-59
2022/02/16 10:28:12;;;;;;;8.75;6.55;;;11.60;99.90;;;;;;5071408;28;20370;-60
2022/02/16 10:30:56;;;;;;;10.25;6.97;;;11.70;99.90;;;;;;5071938;28;20032;-60
2022/02/16 10:33:35;;;;;;;8.25;5.80;;;11.70;99.90;;;;;;5071089;28;20107;-60
2022/02/16 10:36:06;;;;;;;8.43;6.80;;;11.80;99.90;;;;;;5071500;28;20471;-60
2022/02/16 10:38:51;;;;;;;10.40;6.53;;;11.90;99.90;;;;;;5072661;28;20070;-60
2022/02/16 10:41:17;;;;;;;9.05;6.82;;;11.90;99.90;;;;;;5078116;28;20485;-60
2022/02/16 10:43:42;;;;;;;7.40;5.53;;;12.00;99.90;;;;;;5071260;28;20082;-60
2022/02/16 10:46:26;;;;;;;10.43;6.30;;;12.00;99.90;;;;;;5071134;28;20031;-60
2022/02/16 10:49:15;;;;;;;9.95;6.03;;;12.00;99.90;;;;;;5067143;28;20032;-62
2022/02/16 10:51:42;;;;;;;10.52;6.70;;;12.10;99.90;;;;;;5068282;28;20017;-60
2022/02/16 10:54:21;;;;;;;8.93;6.47;;;12.00;99.90;;;;;;5071328;28;20021;-60
2022/02/16 10:56:51;;;;;;;9.15;6.25;;;12.10;99.90;;;;;;5068571;28;20419;-60
2022/02/16 10:59:17;;;;;;;8.77;5.80;;;12.10;99.90;;;;;;5069706;28;20111;-60
2022/02/16 11:01:44;;;;;;;9.25;5.65;;;12.20;99.90;;;;;;5071449;28;20039;-60
2022/02/16 11:04:13;;;;;;;7.32;5.47;;;12.20;99.90;;;;;;5071455;28;20123;-60
2022/02/16 11:06:43;;;;;;;9.02;4.53;;;12.20;99.90;;;;;;5072097;28;20020;-60
2022/02/16 11:09:18;;;;;;;;;;;12.20;99.90;;;;;;5072297;28;20376;-60
2022/02/16 11:11:44;;;;;;;14.30;5.90;;;12.20;99.90;;;;;;5072278;28;20694;-60
2022/02/16 11:14:10;;;;;;;8.43;5.93;;;12.20;99.90;;;;;;5071735;28;20024;-60
2022/02/16 11:16:37;;;;;;;8.63;4.40;;;12.30;99.90;;;;;;5072038;28;20024;-60
2022/02/16 11:19:20;;;;;;;8.13;4.38;;;12.30;99.90;;;;;;5071231;28;20049;-60
2022/02/16 11:22:09;;;;;;;7.60;4.15;;;12.40;99.90;;;;;;5071445;28;20028;-60
2022/02/16 11:24:46;;;;;;;10.35;4.78;;;12.40;99.90;;;;;;5071136;28;20021;-60
2022/02/16 11:27:21;;;;;;;9.90;4.70;;;12.40;99.90;;;;;;5070838;28;20127;-60
2022/02/16 11:29:47;;;;;;;7.55;4.63;;;12.50;99.90;;;;;;5070802;28;20062;-60
2022/02/16 11:32:12;;;;;;;8.93;4.78;;;12.50;99.90;;;;;;5070432;28;20499;-60
2022/02/16 11:34:39;;;;;;;9.60;6.00;;;12.50;99.90;;;;;;5068312;28;20036;-60
2022/02/16 11:37:05;;;;;;;12.02;7.20;;;12.50;99.90;;;;;;5063388;28;20530;-60
2022/02/16 11:39:49;;;;;;;12.20;7.32;;;12.50;99.90;;;;;;5051465;28;20036;-61
2022/02/16 11:42:38;;;;;;;12.32;6.95;;;12.60;99.90;;;;;;5051288;28;20124;-60
2022/02/16 11:45:05;;;;;;;10.87;6.93;;;12.60;99.90;;;;;;5050317;28;20370;-60
2022/02/16 11:47:34;;;;;;;12.65;6.82;;;12.60;99.90;;;;;;5051000;28;20021;-60
2022/02/16 11:50:15;;;;;;;14.50;7.10;;;12.60;99.90;;;;;;5051032;28;20035;-60
2022/02/16 11:52:58;;;;;;;13.00;7.22;;;12.60;99.90;;;;;;5051027;28;20393;-60
2022/02/16 11:55:25;;;;;;;12.23;7.13;;;12.70;99.90;;;;;;5051225;28;20029;-60
2022/02/16 11:57:56;;;;;;;10.38;6.45;;;12.70;99.90;;;;;;5076309;28;20021;-60
2022/02/16 12:00:29;;;;;;;11.15;7.00;;;12.70;99.90;;;;;;5071030;28;20779;-60
2022/02/16 12:03:05;;;;;;;12.07;6.45;;;12.70;99.90;;;;;;5070862;28;20694;-60
2022/02/16 12:05:47;;;;;;;11.60;6.45;;;12.70;99.90;;;;;;5070825;28;20097;-60
2022/02/16 12:08:22;;;;;;;13.20;6.20;;;12.70;99.90;;;;;;5070278;28;20024;-60
2022/02/16 12:10:53;;;;;;;15.52;6.13;;;12.70;99.90;;;;;;5070799;28;20032;-60
2022/02/16 12:13:28;;;;;;;14.38;6.75;;;12.70;99.90;;;;;;5069404;28;20029;-60
2022/02/16 12:15:58;;;;;;;9.10;5.68;;;12.80;99.90;;;;;;5068271;28;20401;-60
2022/02/16 12:18:25;;;;;;;12.13;6.20;;;12.80;99.90;;;;;;5070574;28;20431;-60
2022/02/16 12:20:51;;;;;;;15.18;6.18;;;12.90;99.90;;;;;;5070442;28;20416;-60
2022/02/16 12:23:17;;;;;;;13.07;6.07;;;12.90;99.90;;;;;;5069909;28;20040;-60
2022/02/16 12:25:43;;;;;;;14.35;5.63;;;12.90;99.90;;;;;;5070241;28;20021;-60
2022/02/16 12:28:08;;;;;;;13.88;6.72;;;12.90;99.90;;;;;;5069614;28;20082;-60
2022/02/16 12:30:42;;;;;;;10.63;5.55;;;13.00;99.90;;;;;;5070039;28;20075;-61
2022/02/16 12:33:19;;;;;;;13.20;6.85;;;12.90;99.90;;;;;;5070208;28;20033;-60
2022/02/16 12:35:45;;;;;;;11.90;5.85;;;12.90;99.90;;;;;;5070558;28;20496;-60
2022/02/16 12:38:11;;;;;;;10.70;5.50;;;12.90;99.90;;;;;;5069820;28;20028;-60
2022/02/16 12:40:37;;;;;;;13.18;6.05;;;13.00;99.90;;;;;;5069692;28;20028;-61
2022/02/16 12:43:10;;;;;;;12.35;4.68;;;12.90;99.90;;;;;;5070123;28;20036;-61
2022/02/16 12:45:37;;;;;;;13.00;5.22;;;13.00;99.90;;;;;;5070052;28;20027;-61
2022/02/16 12:48:03;;;;;;;12.75;5.50;;;13.00;99.90;;;;;;5068681;28;20028;-61
2022/02/16 12:50:29;;;;;;;11.45;4.88;;;13.00;99.90;;;;;;5069958;28;20163;-60